Time;durP1;ratioP1;P1;durP2;ratioP2;P2;SDS_P1;SDS_P2;PMS_P1;PMS_P2;Temp;Humidity;BMP_temperature;BMP_pressure;BME280_temperature;BME280_humidity;BME280_pressure;Samples;Min_cycle;Max_cycle;Signal;HPM_P1;HPM_P2
2020/12/25 00:03:32;;;;;;;1.50;1.50;;;;;;;0.13;100.00;96423.13;5141128;27;21045;-68
2020/12/25 00:05:57;;;;;;;1.60;1.57;;;;;;;0.26;100.00;96429.34;5139421;27;20166;-67
2020/12/25 00:08:23;;;;;;;1.70;1.70;;;;;;;0.19;100.00;96432.75;5134563;27;20177;-67
2020/12/25 00:10:52;;;;;;;2.67;1.90;;;;;;;0.19;100.00;96440.50;5140427;27;20182;-68
2020/12/25 00:13:18;;;;;;;2.27;2.10;;;;;;;0.16;100.00;96443.41;5140449;27;20283;-67
2020/12/25 00:15:45;;;;;;;2.00;1.90;;;;;;;0.13;100.00;96459.19;5149303;27;20250;-67
2020/12/25 00:18:11;;;;;;;2.60;2.10;;;;;;;0.06;100.00;96448.00;5145087;27;20175;-67
2020/12/25 00:20:36;;;;;;;2.37;2.27;;;;;;;0.10;100.00;96444.09;5144854;27;20166;-68
2020/12/25 00:23:01;;;;;;;2.20;2.10;;;;;;;0.16;100.00;96454.53;5132057;27;20202;-68
2020/12/25 00:25:27;;;;;;;2.00;1.90;;;;;;;0.13;100.00;96454.06;5148262;27;20251;-68
2020/12/25 00:27:52;;;;;;;2.23;2.03;;;;;;;0.10;100.00;96464.72;5138419;27;20182;-68
2020/12/25 00:30:19;;;;;;;2.30;2.20;;;;;;;0.05;100.00;96454.91;5138417;27;20598;-68
2020/12/25 00:32:44;;;;;;;2.37;2.27;;;;;;;0.15;100.00;96457.28;5136442;27;20686;-68
2020/12/25 00:35:10;;;;;;;2.73;2.53;;;;;;;0.20;100.00;96470.44;5135675;27;20203;-68
2020/12/25 00:37:35;;;;;;;2.17;2.07;;;;;;;0.19;100.00;96466.25;5132863;27;20832;-68
2020/12/25 00:40:01;;;;;;;2.53;2.43;;;;;;;0.23;100.00;96476.06;5138880;27;20624;-68
2020/12/25 00:42:26;;;;;;;2.40;2.30;;;;;;;0.19;100.00;96472.22;5142042;27;20597;-68
2020/12/25 00:44:52;;;;;;;2.03;1.93;;;;;;;0.25;100.00;96474.13;5129249;27;20639;-68
2020/12/25 00:47:17;;;;;;;2.00;1.90;;;;;;;0.23;100.00;96476.06;5141666;27;20224;-68
2020/12/25 00:49:42;;;;;;;1.90;1.80;;;;;;;0.25;100.00;96481.84;5148224;27;20270;-68
2020/12/25 00:52:08;;;;;;;1.50;1.50;;;;;;;0.23;100.00;96488.94;5114347;27;20203;-68
2020/12/25 00:54:33;;;;;;;1.80;1.70;;;;;;;0.25;100.00;96491.34;5134158;27;20253;-69
2020/12/25 00:56:59;;;;;;;1.80;1.70;;;;;;;0.32;100.00;96484.56;5136443;27;20183;-69
2020/12/25 00:59:24;;;;;;;1.80;1.70;;;;;;;0.30;100.00;96486.50;5137445;27;20662;-69
2020/12/25 01:01:51;;;;;;;2.00;1.90;;;;;;;0.29;100.00;96490.84;5121487;27;20232;-69
2020/12/25 01:04:16;;;;;;;1.80;1.67;;;;;;;0.38;100.00;96497.56;5087651;28;20274;-69
2020/12/25 01:06:42;;;;;;;1.57;1.50;;;;;;;0.32;100.00;96500.81;5080761;28;20204;-68
2020/12/25 01:09:08;;;;;;;1.90;1.80;;;;;;;0.33;100.00;96499.84;5082656;28;20169;-69
2020/12/25 01:11:33;;;;;;;1.80;1.70;;;;;;;0.27;100.00;96504.88;5076127;28;20177;-68
2020/12/25 01:13:59;;;;;;;2.00;1.90;;;;;;;0.30;100.00;96504.53;5088732;28;20181;-68
2020/12/25 01:16:24;;;;;;;2.07;1.97;;;;;;;0.24;100.00;96506.00;5085731;28;20205;-69
2020/12/25 01:18:49;;;;;;;1.80;1.70;;;;;;;0.26;100.00;96513.56;5077780;28;20661;-68
2020/12/25 01:21:16;;;;;;;2.13;2.03;;;;;;;0.40;100.00;96523.97;5085443;28;20214;-68
2020/12/25 01:23:43;;;;;;;2.20;2.10;;;;;;;0.36;100.00;96519.31;5092695;28;20245;-68
2020/12/25 01:26:09;;;;;;;2.73;2.50;;;;;;;0.33;100.00;96517.91;5083342;28;20651;-68
2020/12/25 01:28:36;;;;;;;2.00;1.90;;;;;;;0.27;100.00;96520.34;5077539;28;20511;-68
2020/12/25 01:31:02;;;;;;;2.03;1.93;;;;;;;0.22;100.00;96533.75;5090044;28;20189;-68
2020/12/25 01:33:32;;;;;;;2.60;2.40;;;;;;;0.27;100.00;96540.97;5078980;28;20200;-68
2020/12/25 01:35:58;;;;;;;2.33;2.10;;;;;;;0.22;100.00;96538.88;5084539;28;20688;-68
2020/12/25 01:38:23;;;;;;;2.20;2.10;;;;;;;0.21;100.00;96534.69;5086447;28;20180;-69
2020/12/25 01:40:49;;;;;;;2.40;2.20;;;;;;;0.24;100.00;96543.84;5076528;28;20243;-68
2020/12/25 01:43:14;;;;;;;3.60;3.13;;;;;;;0.31;100.00;96540.44;5084057;28;20201;-68
2020/12/25 01:45:39;;;;;;;2.87;2.60;;;;;;;0.30;100.00;96540.59;5091441;28;20254;-68
2020/12/25 01:48:05;;;;;;;2.90;2.53;;;;;;;0.30;100.00;96545.75;5081901;28;20260;-68
2020/12/25 01:50:31;;;;;;;2.67;2.47;;;;;;;0.40;100.00;96549.75;5080690;28;20256;-69
2020/12/25 01:52:57;;;;;;;2.80;2.60;;;;;;;0.43;100.00;96553.75;5078133;28;20234;-68
2020/12/25 01:55:29;;;;;;;3.10;2.90;;;;;;;0.43;100.00;96546.03;5077821;28;20181;-69
2020/12/25 01:57:55;;;;;;;3.40;3.10;;;;;;;0.45;100.00;96553.59;5082696;28;20201;-69
2020/12/25 02:00:23;;;;;;;3.43;3.13;;;;;;;0.36;100.00;96555.41;5080662;28;20235;-69
2020/12/25 02:02:48;;;;;;;4.87;3.60;;;;;;;0.45;100.00;96558.75;5101649;28;20235;-69
2020/12/25 02:05:14;;;;;;;4.27;3.87;;;;;;;0.45;100.00;96556.97;5097588;28;20172;-69
2020/12/25 02:07:40;;;;;;;4.33;3.93;;;;;;;0.54;100.00;96562.88;5078642;28;20230;-69
2020/12/25 02:10:05;;;;;;;4.03;3.67;;;;;;;0.60;100.00;96563.03;5104438;28;20176;-69
2020/12/25 02:12:31;;;;;;;4.60;4.20;;;;;;;0.68;100.00;96560.38;5098369;28;20205;-69
2020/12/25 02:14:57;;;;;;;5.43;4.93;;;;;;;0.63;100.00;96561.84;5108457;28;20183;-69
2020/12/25 02:17:23;;;;;;;6.47;5.40;;;;;;;0.60;100.00;96559.63;5097825;28;20183;-69
2020/12/25 02:19:48;;;;;;;6.73;5.27;;;;;;;0.59;100.00;96558.03;5104756;28;20562;-69
2020/12/25 02:22:13;;;;;;;6.43;5.30;;;;;;;0.62;100.00;96567.97;5104305;28;20321;-69
2020/12/25 02:24:39;;;;;;;6.07;5.17;;;;;;;0.62;100.00;96562.81;5110766;28;20774;-69
2020/12/25 02:27:04;;;;;;;7.23;5.70;;;;;;;0.57;100.00;96573.66;5108765;28;20177;-69
2020/12/25 02:29:30;;;;;;;8.20;6.20;;;;;;;0.56;100.00;96559.16;5100182;28;20259;-69
2020/12/25 02:31:55;;;;;;;6.33;5.63;;;;;;;0.63;100.00;96579.91;5104036;28;20212;-69
2020/12/25 02:34:21;;;;;;;8.30;5.87;;;;;;;0.58;100.00;96572.69;5099472;28;20638;-69
2020/12/25 02:36:46;;;;;;;8.90;6.77;;;;;;;0.65;100.00;96570.25;5108573;28;20176;-69
2020/12/25 02:39:12;;;;;;;9.10;6.77;;;;;;;0.62;100.00;96580.88;5100341;28;20192;-69
2020/12/25 02:41:37;;;;;;;8.17;6.10;;;;;;;0.64;100.00;96572.00;5104541;28;20658;-69
2020/12/25 02:44:02;;;;;;;8.87;6.77;;;;;;;0.66;100.00;96585.56;5101017;28;20176;-69
2020/12/25 02:46:29;;;;;;;7.70;6.57;;;;;;;0.63;100.00;96588.44;5091936;28;20173;-68
2020/12/25 02:48:55;;;;;;;8.03;6.83;;;;;;;0.63;100.00;96603.13;5100780;28;20654;-69
2020/12/25 02:51:21;;;;;;;10.47;6.60;;;;;;;0.67;100.00;96591.50;5092268;28;20284;-69
2020/12/25 02:53:47;;;;;;;11.47;7.17;;;;;;;0.72;100.00;96596.97;5075437;28;20287;-69
2020/12/25 02:56:14;;;;;;;8.87;7.57;;;;;;;0.69;100.00;96594.72;5100295;28;20203;-69
2020/12/25 02:58:39;;;;;;;11.30;7.30;;;;;;;0.75;100.00;96596.63;5099538;28;20843;-69
2020/12/25 03:01:08;;;;;;;13.20;6.90;;;;;;;0.78;100.00;96602.22;5112378;27;20295;-69
2020/12/25 03:03:34;;;;;;;9.33;7.53;;;;;;;0.79;100.00;96609.00;5130841;27;20205;-69
2020/12/25 03:06:00;;;;;;;11.33;7.50;;;;;;;0.77;100.00;96610.16;5124170;27;20175;-69
2020/12/25 03:08:25;;;;;;;8.90;6.57;;;;;;;0.78;100.00;96604.81;5120149;27;20183;-68
2020/12/25 03:10:50;;;;;;;9.17;7.87;;;;;;;0.74;100.00;96616.44;5128457;27;20180;-69
2020/12/25 03:13:16;;;;;;;7.30;6.47;;;;;;;0.78;100.00;96615.13;5113230;27;20257;-69
2020/12/25 03:15:41;;;;;;;8.93;7.73;;;;;;;0.80;100.00;96618.34;5111726;27;20820;-69
2020/12/25 03:18:06;;;;;;;9.83;7.23;;;;;;;0.82;100.00;96624.16;5120268;27;20195;-69
2020/12/25 03:20:32;;;;;;;9.03;7.20;;;;;;;0.75;100.00;96617.25;5126441;27;20179;-68
2020/12/25 03:22:57;;;;;;;9.73;6.93;;;;;;;0.86;100.00;96627.19;5115052;27;20510;-68
2020/12/25 03:25:25;;;;;;;8.00;6.63;;;;;;;0.83;100.00;96619.78;5126170;27;20175;-68
2020/12/25 03:27:51;;;;;;;8.87;6.77;;;;;;;0.76;100.00;96624.81;5120190;27;20175;-68
2020/12/25 03:30:16;;;;;;;8.53;6.60;;;;;;;0.82;100.00;96621.56;5112381;28;20179;-69
2020/12/25 03:32:41;;;;;;;8.50;6.53;;;;;;;0.82;100.00;96631.88;5127330;27;20202;-69
2020/12/25 03:35:07;;;;;;;7.73;6.20;;;;;;;0.82;100.00;96631.88;5128570;27;20172;-68
2020/12/25 03:37:32;;;;;;;8.23;6.13;;;;;;;0.86;100.00;96632.34;5118002;27;20175;-68
2020/12/25 03:39:58;;;;;;;7.97;6.60;;;;;;;0.89;100.00;96633.78;5094598;28;20178;-68
2020/12/25 03:42:24;;;;;;;7.50;6.17;;;;;;;0.85;100.00;96625.56;5125202;27;20560;-68
2020/12/25 03:44:54;;;;;;;7.77;6.00;;;;;;;0.84;100.00;96618.78;5114769;27;20167;-68
2020/12/25 03:47:22;;;;;;;9.23;7.13;;;;;;;0.89;100.00;96621.69;5097801;28;20585;-68
2020/12/25 03:49:47;;;;;;;8.50;7.30;;;;;;;0.96;100.00;96627.75;5119263;28;20183;-68
2020/12/25 03:52:13;;;;;;;9.63;6.70;;;;;;;0.96;100.00;96622.59;5124326;28;20255;-68
2020/12/25 03:54:38;;;;;;;8.60;7.67;;;;;;;0.95;100.00;96625.38;5114766;28;20184;-68
2020/12/25 03:57:04;;;;;;;9.60;7.27;;;;;;;0.95;100.00;96631.31;5127688;28;20180;-68
2020/12/25 03:59:29;;;;;;;8.57;7.33;;;;;;;0.94;100.00;96634.09;5118514;28;20176;-68
2020/12/25 04:01:54;;;;;;;9.50;7.20;;;;;;;0.95;100.00;96638.28;5109678;28;20219;-69
2020/12/25 04:04:20;;;;;;;10.63;7.20;;;;;;;0.97;100.00;96639.69;5111193;28;20168;-69
2020/12/25 04:06:45;;;;;;;10.17;7.27;;;;;;;0.88;100.00;96637.34;5111789;28;20199;-68
2020/12/25 04:09:11;;;;;;;9.10;7.17;;;;;;;0.92;100.00;96629.09;5111887;28;20175;-68
2020/12/25 04:11:36;;;;;;;8.90;7.27;;;;;;;0.89;100.00;96638.94;5111064;28;20661;-67
2020/12/25 04:14:02;;;;;;;11.67;7.87;;;;;;;0.86;100.00;96640.06;5112297;28;20179;-69
2020/12/25 04:16:29;;;;;;;8.63;7.40;;;;;;;0.94;100.00;96646.97;5111387;28;20200;-68
2020/12/25 04:18:55;;;;;;;10.30;7.77;;;;;;;0.91;100.00;96642.16;5111842;28;20168;-69
2020/12/25 04:21:20;;;;;;;10.13;7.23;;;;;;;0.87;100.00;96644.28;5112392;28;20221;-69
2020/12/25 04:23:46;;;;;;;11.67;7.67;;;;;;;0.97;100.00;96646.63;5110733;28;20699;-68
2020/12/25 04:26:11;;;;;;;10.10;6.93;;;;;;;0.88;100.00;96650.25;5111528;28;20179;-68
2020/12/25 04:28:37;;;;;;;9.53;7.47;;;;;;;0.99;100.00;96644.69;5110672;28;20168;-69
2020/12/25 04:31:02;;;;;;;8.40;7.37;;;;;;;0.94;100.00;96650.38;5111503;28;20176;-68
2020/12/25 04:33:28;;;;;;;11.93;7.43;;;;;;;0.99;100.00;96653.25;5111109;28;20568;-68
2020/12/25 04:35:54;;;;;;;9.00;7.00;;;;;;;0.95;100.00;96661.50;5112029;28;20164;-69
2020/12/25 04:38:19;;;;;;;11.27;7.30;;;;;;;0.98;100.00;96661.94;5113169;28;20160;-68
2020/12/25 04:40:45;;;;;;;9.27;7.20;;;;;;;0.98;100.00;96656.78;5114440;28;20176;-68
2020/12/25 04:43:14;;;;;;;8.87;6.90;;;;;;;0.92;100.00;96667.78;5114202;28;20200;-69
2020/12/25 04:45:39;;;;;;;7.47;6.67;;;;;;;0.99;100.00;96673.06;5115076;28;20251;-68
2020/12/25 04:48:06;;;;;;;7.80;6.93;;;;;;;1.00;100.00;96679.84;5115628;28;20659;-69
2020/12/25 04:50:32;;;;;;;7.67;6.60;;;;;;;1.04;100.00;96683.69;5114881;28;20233;-69
2020/12/25 04:52:59;;;;;;;6.50;5.80;;;;;;;1.07;100.00;96680.75;5115040;28;20207;-69
2020/12/25 04:55:25;;;;;;;7.63;6.47;;;;;;;1.01;100.00;96687.41;5114503;28;20259;-68
2020/12/25 04:57:53;;;;;;;6.43;5.73;;;;;;;1.01;100.00;96686.59;5115169;28;20218;-68
2020/12/25 05:00:22;;;;;;;6.13;5.53;;;;;;;1.09;100.00;96696.88;5115695;28;20180;-69
2020/12/25 05:02:51;;;;;;;7.03;6.13;;;;;;;1.15;100.00;96689.28;5112357;28;20238;-68
2020/12/25 05:05:18;;;;;;;5.60;5.00;;;;;;;1.04;100.00;96696.59;5115657;28;20168;-69
2020/12/25 05:07:45;;;;;;;6.13;5.53;;;;;;;1.01;100.00;96700.31;5114286;28;20255;-68
2020/12/25 05:10:10;;;;;;;6.77;5.80;;;;;;;0.95;100.00;96700.97;5114984;28;20198;-68
2020/12/25 05:12:36;;;;;;;6.50;5.53;;;;;;;0.92;100.00;96705.66;5113886;28;20203;-69
2020/12/25 05:15:07;;;;;;;7.00;6.00;;;;;;;1.04;100.00;96709.50;5114604;28;20172;-69
2020/12/25 05:17:34;;;;;;;6.27;5.67;;;;;;;1.00;100.00;96714.19;5114034;28;20173;-68
2020/12/25 05:19:59;;;;;;;6.43;5.73;;;;;;;1.01;100.00;96713.19;5114375;28;20164;-68
2020/12/25 05:22:26;;;;;;;7.30;6.07;;;;;;;1.06;100.00;96716.06;5114048;28;20268;-68
2020/12/25 05:24:51;;;;;;;6.60;5.90;;;;;;;1.12;100.00;96715.41;5114382;28;20327;-69
2020/12/25 05:27:17;;;;;;;6.73;6.07;;;;;;;1.01;100.00;96725.28;5114399;28;20255;-68
2020/12/25 05:29:43;;;;;;;8.23;6.10;;;;;;;0.99;100.00;96727.25;5114110;28;20172;-70
2020/12/25 05:32:08;;;;;;;9.07;6.40;;;;;;;0.98;100.00;96725.66;5114290;28;20235;-69
2020/12/25 05:34:35;;;;;;;8.60;6.53;;;;;;;1.02;100.00;96727.72;5114072;28;20244;-68
2020/12/25 05:37:03;;;;;;;7.87;6.07;;;;;;;1.00;100.00;96727.09;5114082;28;20179;-68
2020/12/25 05:39:30;;;;;;;8.00;6.90;;;;;;;0.99;100.00;96733.22;5113736;28;20160;-68
2020/12/25 05:42:01;;;;;;;7.00;6.30;;;;;;;1.02;100.00;96730.28;5114278;28;20240;-69
2020/12/25 05:44:28;;;;;;;7.93;7.00;;;;;;;1.09;100.00;96738.16;5113518;28;20175;-69
2020/12/25 05:46:59;;;;;;;7.37;6.40;;;;;;;1.07;100.00;96740.09;5114342;28;20233;-69
2020/12/25 05:49:29;;;;;;;6.93;6.23;;;;;;;1.07;100.00;96746.06;5113218;28;20180;-68
2020/12/25 05:51:55;;;;;;;8.37;7.30;;;;;;;0.99;100.00;96743.53;5114097;28;20273;-69
2020/12/25 05:54:25;;;;;;;8.13;6.50;;;;;;;0.98;100.00;96739.34;5114121;28;20187;-68
2020/12/25 05:56:55;;;;;;;8.37;7.20;;;;;;;1.00;100.00;96746.94;5113248;28;20238;-70
2020/12/25 05:59:27;;;;;;;9.77;7.50;;;;;;;1.03;100.00;96741.44;5114086;28;20172;-69
2020/12/25 06:02:01;;;;;;;8.93;7.23;;;;;;;1.06;100.00;96748.84;5100658;28;20307;-69
2020/12/25 06:04:31;;;;;;;8.47;7.00;;;;;;;0.97;100.00;96744.66;5092632;28;20176;-69
2020/12/25 06:06:58;;;;;;;7.83;7.03;;;;;;;0.94;100.00;96748.41;5093599;28;20263;-67
2020/12/25 06:09:33;;;;;;;9.47;7.60;;;;;;;0.91;100.00;96753.06;5093300;28;20169;-68
2020/12/25 06:12:01;;;;;;;8.77;7.00;;;;;;;0.98;100.00;96749.69;5092943;28;20200;-69
2020/12/25 06:14:27;;;;;;;8.20;7.00;;;;;;;1.03;100.00;96755.13;5092764;28;20196;-69
2020/12/25 06:17:03;;;;;;;9.60;7.87;;;;;;;1.04;100.00;96766.25;5093392;28;20172;-69
2020/12/25 06:19:49;;;;;;;10.03;7.93;;;;;;;0.97;100.00;96770.47;5092256;28;20169;-68
2020/12/25 06:22:22;;;;;;;9.33;7.43;;;;;;;0.96;100.00;96777.41;5093355;28;20283;-69
2020/12/25 06:24:51;;;;;;;10.50;7.30;;;;;;;0.94;100.00;96765.66;5092217;28;20180;-70
2020/12/25 06:27:17;;;;;;;7.60;6.80;;;;;;;0.98;100.00;96772.91;5092959;28;20511;-69
2020/12/25 06:29:43;;;;;;;9.20;6.97;;;;;;;0.87;100.00;96772.44;5090458;28;20184;-69
2020/12/25 06:32:12;;;;;;;8.70;7.07;;;;;;;0.87;100.00;96773.25;5091189;28;20229;-69
2020/12/25 06:34:46;;;;;;;7.77;6.80;;;;;;;0.90;100.00;96778.06;5090779;28;20179;-69
2020/12/25 06:37:16;;;;;;;8.67;7.33;;;;;;;0.82;100.00;96778.91;5089530;28;20177;-69
2020/12/25 06:39:52;;;;;;;7.57;6.77;;;;;;;0.82;100.00;96771.19;5092472;28;20919;-69
2020/12/25 06:42:32;;;;;;;9.77;7.40;;;;;;;0.89;100.00;96786.00;5092626;28;20241;-70
2020/12/25 06:45:03;;;;;;;9.27;7.37;;;;;;;0.91;100.00;96786.63;5092836;28;20204;-69
2020/12/25 06:47:32;;;;;;;9.67;8.17;;;;;;;0.77;100.00;96788.13;5092185;28;20204;-69
2020/12/25 06:49:57;;;;;;;10.20;7.40;;;;;;;0.82;100.00;96791.00;5092754;28;20212;-70
2020/12/25 06:52:30;;;;;;;9.67;7.70;;;;;;;0.82;100.00;96796.16;5092549;28;20238;-69
2020/12/25 06:54:57;;;;;;;11.27;7.93;;;;;;;0.87;100.00;96799.06;5092228;28;20189;-70
2020/12/25 06:57:30;;;;;;;8.50;7.27;;;;;;;0.83;100.00;96801.16;5091761;28;20188;-68
2020/12/25 07:00:03;;;;;;;9.90;7.57;;;;;;;0.72;100.00;96798.13;5082887;28;20247;-69
2020/12/25 07:02:29;;;;;;;8.33;6.70;;;;;;;0.74;100.00;96802.13;5119583;27;20245;-69
2020/12/25 07:05:02;;;;;;;8.67;7.00;;;;;;;0.71;100.00;96806.84;5130731;27;20172;-69
2020/12/25 07:07:34;;;;;;;8.63;7.13;;;;;;;0.58;100.00;96819.41;5120859;27;20202;-68
2020/12/25 07:10:08;;;;;;;8.27;5.90;;;;;;;0.38;100.00;96811.22;5122568;27;20250;-67
2020/12/25 07:12:34;;;;;;;6.83;5.80;;;;;;;0.40;100.00;96822.97;5118854;27;20214;-68
2020/12/25 07:15:00;;;;;;;6.17;5.40;;;;;;;0.45;100.00;96827.63;5131169;27;20191;-69
2020/12/25 07:17:27;;;;;;;7.40;6.07;;;;;;;0.51;100.00;96828.75;5099050;28;20176;-64
2020/12/25 07:19:53;;;;;;;6.50;5.30;;;;;;;0.49;100.00;96826.38;5121936;27;20167;-64
2020/12/25 07:22:19;;;;;;;5.80;5.20;;;;;;;0.49;100.00;96836.69;5120435;27;20197;-65
2020/12/25 07:24:45;;;;;;;7.27;6.10;;;;;;;0.45;100.00;96835.38;5118170;27;20179;-65
2020/12/25 07:27:12;;;;;;;6.63;5.47;;;;;;;0.46;100.00;96842.16;5126381;27;20654;-65
2020/12/25 07:29:38;;;;;;;5.37;4.87;;;;;;;0.48;100.00;96842.00;5121505;27;20275;-69
2020/12/25 07:32:04;;;;;;;6.23;5.27;;;;;;;0.96;100.00;96841.09;5100043;28;20553;-66
2020/12/25 07:34:30;;;;;;;7.67;6.47;;;;;;;1.62;100.00;96836.34;5110671;28;20175;-64
2020/12/25 07:36:57;;;;;;;7.23;5.70;;;;;;;0.98;100.00;96850.31;5111338;28;20172;-65
2020/12/25 07:39:24;;;;;;;6.33;5.10;;;;;;;0.79;100.00;96854.03;5114457;27;20702;-64
2020/12/25 07:41:50;;;;;;;5.73;5.17;;;;;;;0.71;100.00;96854.06;5092301;28;20202;-65
2020/12/25 07:44:17;;;;;;;5.67;5.17;;;;;;;0.62;100.00;96856.78;5121514;27;20180;-66
2020/12/25 07:46:43;;;;;;;6.30;5.33;;;;;;;0.66;100.00;96865.84;5118897;28;20179;-65
2020/12/25 07:49:09;;;;;;;6.00;5.40;;;;;;;0.59;100.00;96870.03;5114573;28;20187;-65
2020/12/25 07:51:36;;;;;;;6.03;5.43;;;;;;;0.52;100.00;96877.59;5113767;28;20194;-68
2020/12/25 07:54:03;;;;;;;6.20;5.60;;;;;;;0.49;100.00;96875.34;5120670;28;20187;-64
2020/12/25 07:56:31;;;;;;;7.07;5.80;;;;;;;0.55;100.00;96872.13;5122133;28;20174;-64
2020/12/25 07:58:57;;;;;;;7.17;6.23;;;;;;;0.52;100.00;96879.38;5082019;28;20221;-66
2020/12/25 08:01:25;;;;;;;7.53;6.70;;;;;;;0.57;100.00;96885.66;5117064;27;20290;-65
2020/12/25 08:03:52;;;;;;;6.63;5.77;;;;;;;0.60;100.00;96879.38;5132798;27;20189;-64
2020/12/25 08:06:22;;;;;;;8.67;6.50;;;;;;;0.57;100.00;96887.41;5141703;27;20633;-65
2020/12/25 08:08:50;;;;;;;8.37;6.93;;;;;;;0.61;100.00;96881.81;5133544;27;20726;-65
2020/12/25 08:11:17;;;;;;;7.93;6.73;;;;;;;0.59;100.00;96894.03;5145651;27;20587;-66
2020/12/25 08:13:47;;;;;;;8.87;7.37;;;;;;;0.60;100.00;96902.59;5142299;27;20210;-67
2020/12/25 08:16:12;;;;;;;7.30;6.50;;;;;;;0.62;100.00;96893.72;5142182;27;20222;-65
2020/12/25 08:18:38;;;;;;;8.07;6.60;;;;;;;0.50;100.00;96901.94;5149564;27;20253;-65
2020/12/25 08:21:04;;;;;;;8.47;6.63;;;;;;;0.53;100.00;96901.63;5152167;27;20190;-69
2020/12/25 08:23:34;;;;;;;7.67;6.70;;;;;;;0.48;100.00;96898.72;5149709;27;20194;-64
2020/12/25 08:26:00;;;;;;;9.00;7.00;;;;;;;0.60;100.00;96902.59;5149830;27;20171;-66
2020/12/25 08:28:25;;;;;;;7.87;6.70;;;;;;;0.55;100.00;96903.06;5146947;27;20167;-65
2020/12/25 08:30:51;;;;;;;8.53;6.83;;;;;;;0.68;100.00;96907.72;5137746;27;20182;-65
2020/12/25 08:33:25;;;;;;;8.43;7.20;;;;;;;0.67;100.00;96906.91;5150501;27;20583;-65
2020/12/25 08:35:51;;;;;;;8.97;7.23;;;;;;;0.55;100.00;96915.97;5139327;27;20189;-65
2020/12/25 08:38:16;;;;;;;9.63;7.90;;;;;;;0.50;100.00;96913.06;5151533;27;20167;-65
2020/12/25 08:40:45;;;;;;;10.40;8.40;;;;;;;0.57;100.00;96914.00;5148595;27;20170;-65
2020/12/25 08:43:16;;;;;;;10.17;8.27;;;;;;;0.51;100.00;96909.50;5139710;27;20202;-65
2020/12/25 08:45:56;;;;;;;10.30;8.20;;;;;;;0.59;100.00;96913.88;5150759;27;20208;-65
2020/12/25 08:48:22;;;;;;;10.90;8.77;;;;;;;0.54;100.00;96919.50;5148228;27;20197;-65
2020/12/25 08:50:48;;;;;;;13.20;8.93;;;;;;;0.49;100.00;96926.13;5135136;27;20175;-65
2020/12/25 08:53:21;;;;;;;13.00;9.03;;;;;;;0.53;100.00;96923.03;5134417;27;20206;-65
2020/12/25 08:55:54;;;;;;;13.10;9.40;;;;;;;0.60;100.00;96924.03;5131795;27;20199;-65
2020/12/25 08:58:22;;;;;;;13.87;10.37;;;;;;;0.72;100.00;96933.06;5135163;27;20175;-65
2020/12/25 09:00:58;;;;;;;15.57;10.63;;;;;;;0.82;100.00;96943.22;5131667;27;20717;-65
2020/12/25 09:03:35;;;;;;;17.37;10.43;;;;;;;0.90;100.00;96942.38;5094064;28;20211;-65
2020/12/25 09:06:00;;;;;;;14.83;10.40;;;;;;;0.87;100.00;96937.56;5094119;28;20538;-67
2020/12/25 09:08:30;;;;;;;12.23;9.50;;;;;;;0.91;100.00;96949.97;5093626;28;20199;-65
2020/12/25 09:10:55;;;;;;;13.87;10.00;;;;;;;0.89;100.00;96956.28;5093812;28;20169;-65
2020/12/25 09:13:21;;;;;;;15.90;9.87;;;;;;;1.10;100.00;96957.38;5093366;28;20215;-65
2020/12/25 09:15:46;;;;;;;14.63;10.37;;;;;;;1.11;100.00;96960.78;5092512;28;20241;-67
2020/12/25 09:18:12;;;;;;;14.23;10.00;;;;;;;1.14;100.00;96968.97;5093269;28;20177;-66
2020/12/25 09:20:37;;;;;;;15.70;9.90;;;;;;;1.03;100.00;96965.94;5093169;28;20176;-65
2020/12/25 09:23:03;;;;;;;17.10;10.70;;;;;;;1.08;100.00;96966.25;5093978;28;20607;-65
2020/12/25 09:25:28;;;;;;;15.97;10.20;;;;;;;1.10;100.00;96959.16;5092894;28;20169;-67
2020/12/25 09:27:54;;;;;;;15.67;10.63;;;;;;;1.08;100.00;96968.81;5092391;28;20681;-66
2020/12/25 09:30:19;;;;;;;17.10;11.30;;;;;;;1.08;100.00;96968.81;5093596;28;20177;-64
2020/12/25 09:32:45;;;;;;;14.83;10.07;;;;;;;1.12;100.00;96970.09;5092477;28;20337;-66
2020/12/25 09:35:10;;;;;;;15.33;11.17;;;;;;;1.26;100.00;96969.44;5093981;28;20180;-66
2020/12/25 09:37:36;;;;;;;13.93;10.00;;;;;;;1.25;100.00;96973.00;5093425;28;20173;-66
2020/12/25 09:40:02;;;;;;;13.20;9.67;;;;;;;1.31;100.00;96979.28;5093660;28;20172;-66
2020/12/25 09:42:33;;;;;;;14.20;9.67;;;;;;;1.39;100.00;96985.25;5092957;28;20666;-66
2020/12/25 09:44:59;;;;;;;15.80;10.40;;;;;;;1.30;100.00;96986.22;5093566;28;20259;-67
2020/12/25 09:47:25;;;;;;;13.13;9.93;;;;;;;1.17;100.00;96989.28;5093637;28;20264;-66
2020/12/25 09:49:51;;;;;;;16.73;10.23;;;;;;;1.31;100.00;96984.44;5092541;28;20185;-66
2020/12/25 09:52:16;;;;;;;16.20;10.70;;;;;;;1.27;100.00;96989.16;5093353;28;20204;-67
2020/12/25 09:54:42;;;;;;;18.03;11.30;;;;;;;1.20;100.00;96991.56;5092570;28;20195;-67
2020/12/25 09:57:07;;;;;;;14.83;10.67;;;;;;;1.27;100.00;96988.34;5092022;28;20176;-66
2020/12/25 09:59:33;;;;;;;14.00;9.87;;;;;;;1.22;100.00;96997.38;5092479;28;20360;-66
2020/12/25 10:01:58;;;;;;;14.90;10.10;;;;;;;1.34;100.00;96997.03;5101621;28;20750;-66
2020/12/25 10:04:24;;;;;;;12.60;9.30;;;;;;;1.29;100.00;96986.38;5113426;28;20183;-67
2020/12/25 10:06:49;;;;;;;11.80;8.73;;;;;;;1.26;100.00;96997.84;5112749;28;20698;-67
2020/12/25 10:09:15;;;;;;;16.73;9.90;;;;;;;1.45;100.00;97000.06;5113626;28;20550;-67
2020/12/25 10:11:40;;;;;;;13.27;9.10;;;;;;;1.35;100.00;96990.88;5111991;28;20256;-66
2020/12/25 10:14:06;;;;;;;14.50;9.17;;;;;;;1.38;100.00;96998.31;5113083;28;20527;-65
2020/12/25 10:16:33;;;;;;;11.63;8.93;;;;;;;1.34;100.00;97002.22;5112533;28;20705;-68
2020/12/25 10:18:58;;;;;;;12.27;8.97;;;;;;;1.28;100.00;97001.09;5113262;28;20682;-66
2020/12/25 10:21:24;;;;;;;16.10;9.47;;;;;;;1.25;100.00;96998.81;5113283;28;20160;-66
2020/12/25 10:23:50;;;;;;;13.40;8.73;;;;;;;1.26;100.00;96992.69;5112457;28;20202;-65
2020/12/25 10:26:15;;;;;;;15.07;9.80;;;;;;;1.37;100.00;96997.50;5112483;28;20521;-65
2020/12/25 10:28:40;;;;;;;12.37;9.00;;;;;;;1.41;100.00;96996.22;5112565;28;20182;-66
2020/12/25 10:31:08;;;;;;;12.13;7.63;;;;;;;1.15;100.00;96987.84;5112442;28;20672;-66
2020/12/25 10:33:37;;;;;;;12.57;8.10;;;;;;;1.26;100.00;96987.53;5112006;28;20208;-66
2020/12/25 10:36:03;;;;;;;11.20;8.07;;;;;;;1.21;100.00;96997.53;5111999;27;20205;-66
2020/12/25 10:38:34;;;;;;;11.20;7.97;;;;;;;1.18;100.00;96998.66;5112564;28;20172;-69
2020/12/25 10:41:00;;;;;;;9.13;7.23;;;;;;;1.18;100.00;96988.31;5112340;28;20207;-66
2020/12/25 10:43:26;;;;;;;9.33;7.40;;;;;;;1.19;100.00;96982.19;5111175;28;20661;-66
2020/12/25 10:45:51;;;;;;;12.93;7.83;;;;;;;1.12;100.00;96983.00;5111591;28;20216;-66
2020/12/25 10:48:17;;;;;;;14.67;8.27;;;;;;;1.16;100.00;96992.06;5112030;28;20535;-66
2020/12/25 10:50:44;;;;;;;11.43;8.30;;;;;;;1.23;100.00;96986.06;5111385;28;20626;-67
2020/12/25 10:53:09;;;;;;;14.83;8.60;;;;;;;1.24;100.00;96994.63;5112067;28;20554;-66
2020/12/25 10:55:36;;;;;;;11.77;8.47;;;;;;;1.33;100.00;96985.09;5110840;27;20247;-66
2020/12/25 10:58:02;;;;;;;12.10;7.97;;;;;;;1.22;100.00;96988.81;5111393;28;20633;-65
2020/12/25 11:00:27;;;;;;;10.10;7.77;;;;;;;1.43;100.00;96996.84;5111882;28;20191;-64
2020/12/25 11:02:53;;;;;;;9.80;7.37;;;;;;;1.41;100.00;96997.97;5089079;28;20233;-66
2020/12/25 11:05:18;;;;;;;14.50;8.57;;;;;;;1.40;100.00;96998.94;5092129;28;20191;-67
2020/12/25 11:07:44;;;;;;;14.10;8.27;;;;;;;1.28;100.00;96998.50;5090912;28;20225;-67
2020/12/25 11:10:09;;;;;;;11.00;8.10;;;;;;;1.19;100.00;97002.03;5091869;28;20200;-67
2020/12/25 11:12:35;;;;;;;11.60;7.90;;;;;;;1.27;100.00;97006.41;5090337;28;20208;-67
2020/12/25 11:15:00;;;;;;;13.30;8.30;;;;;;;1.31;100.00;96998.16;5091297;28;20181;-67
2020/12/25 11:17:26;;;;;;;10.47;8.13;;;;;;;1.39;100.00;97005.91;5091510;28;20210;-68
2020/12/25 11:19:55;;;;;;;12.73;7.67;;;;;;;1.38;100.00;96995.75;5090906;28;20854;-67
2020/12/25 11:22:21;;;;;;;9.97;7.90;;;;;;;1.34;100.00;96990.06;5091411;28;20208;-67
2020/12/25 11:24:47;;;;;;;9.20;6.87;;;;;;;1.39;100.00;96995.59;5090235;28;20263;-67
2020/12/25 11:27:13;;;;;;;8.33;6.63;;;;;;;1.31;100.00;96984.44;5091400;28;20276;-67
2020/12/25 11:29:38;;;;;;;8.13;7.07;;;;;;;1.22;100.00;96987.06;5090637;28;20173;-65
2020/12/25 11:32:04;;;;;;;8.87;6.53;;;;;;;1.22;100.00;96992.22;5090900;28;20719;-65